Ashland, Oregon
Current Conditions -  °F | °C
As of 2:53 PM on Saturday 20 Dec 2014 (Local Time) from KMFR Reporting Station
Light Rain Light Rain  
Wind Chill:   Ceiling: 5000
Heat Index:   Visibility: 5mi
Dew Point:   Wind: 0mph
Humidity: 93%   Direction: NA
Pressure: 29.93"   Gusts: NA
Location:  42.2°N, 122.71°W
Report Text: KMFR 202253Z 00000KT 5SM -RA BR BKN050 OVC075 09/08 A2993 RMK AO2 SLP137 P0004 T00890078
Loading
Personal Weather Stations






























Interactive Weather Map New forecast layout! Learn more

10-Day Weather Forecast

Advertisements
Track Severe Weather on mobile